Impacts TAF Board INFO
FOR SITUATIONAL AWARENESS. NOT TO BE USED FOR FLIGHT PLANNING PURPOSES.
IDs:

KBOS - Boston/Logan Intl, MA, US

Issued at 0828 UTC 22 May 2018
Updated at 1016 UTC 22 May 2018
Potential Impact None Slight Moderate High
Time0954Z 22/11Z 22/12Z 22/13Z 22/14Z 22/15Z 22/16Z 22/17Z 22/18Z 22/19Z 22/20Z 22/21Z 22/22Z 22/23Z>>
Type OBS PRVL PRVL PRVL PRVL PRVL PRVL PRVL PRVL PRVL PRVL PRVL PRVL PRVL
VIS 10 >6 >6 >6 >6 >6 >6 >6 >6 >6 >6 >6 >6 >6
CIG 250 200 200 200 200 70 70 70 70 70 70 70 70 70
Cover BKN OVC OVC OVC OVC OVC OVC OVC OVC OVC OVC OVC OVC OVC
FltCat VFR VFR VFR VFR VFR VFR VFR VFR VFR VFR VFR VFR VFR VFR
WX -- -- -- -- -- -- -- -- -- VCSH VCSH VCSH VCSH VCSH
WDir 180 10 10 10 10 120 120 120 120 160 160 160 160 160
WSpd 3 3 3 3 3 7 7 7 7 7 7 7 7 7
WGst -- -- -- -- -- -- -- -- -- -- -- -- -- --

Raw TAF
KBOS 220828Z 2208/2312 VRB03KT P6SM BKN250
  FM221100 01003KT P6SM OVC200
  FM221500 12007KT P6SM BKN070 OVC150
  FM221900 16007KT P6SM VCSH OVC070
  FM230200 18005KT P6SM -SHRA OVC030
  FM230500 19004KT 6SM -SHRA BR OVC015
  FM230600 19004KT 6SM BR VCSH BKN008
  FM231000 26004KT 4SM BR BKN008


Raw METAR
KBOS 220954Z 18003KT 10SM SCT150 BKN250 14/10 A3016 RMK AO2 SLP212 T01390100
KBOS 220854Z 28004KT 10SM FEW150 BKN250 16/09 A3015 RMK AO2 SLP209 T01610094 53006
KBOS 220754Z 00000KT 10SM FEW250 17/09 A3015 RMK AO2 SLP207 T01670094

METAR Board
Radar Display
Forecast Discussion

FOR SITUATIONAL AWARENESS. NOT TO BE USED FOR FLIGHT PLANNING PURPOSES.